createdAt,value
2023-04-10T00:01:08.969Z,19.00
2023-04-10T00:03:55.836Z,18.40
2023-04-10T00:06:28.168Z,17.50
2023-04-10T00:08:54.889Z,18.00
2023-04-10T00:11:21.441Z,17.00
2023-04-10T00:13:55.730Z,17.10
2023-04-10T00:16:27.515Z,17.50
2023-04-10T00:18:55.830Z,17.10
2023-04-10T00:21:22.651Z,17.20
2023-04-10T00:24:00.466Z,16.70
2023-04-10T00:26:27.683Z,18.30
2023-04-10T00:28:55.081Z,17.10
2023-04-10T00:31:24.652Z,17.60
2023-04-10T00:33:57.984Z,17.60
2023-04-10T00:36:28.057Z,18.90
2023-04-10T00:38:54.817Z,17.00
2023-04-10T00:41:28.902Z,16.80
2023-04-10T00:43:56.526Z,17.80
2023-04-10T00:46:23.845Z,17.60
2023-04-10T00:48:54.715Z,16.80
2023-04-10T00:51:22.510Z,18.10
2023-04-10T00:53:51.684Z,17.10
2023-04-10T00:56:20.322Z,17.70
2023-04-10T00:58:48.057Z,18.00
2023-04-10T01:01:14.724Z,17.30
2023-04-10T01:03:43.355Z,18.90
2023-04-10T01:06:26.882Z,18.40
2023-04-10T01:09:22.788Z,20.70
2023-04-10T01:12:09.099Z,20.60
2023-04-10T01:15:04.474Z,21.60
2023-04-10T01:17:55.553Z,21.50
2023-04-10T01:20:23.844Z,23.60
2023-04-10T01:23:03.612Z,25.10
2023-04-10T01:25:44.745Z,28.00
2023-04-10T01:28:41.014Z,28.00
2023-04-10T01:31:09.904Z,29.10
2023-04-10T01:33:41.413Z,28.50
2023-04-10T01:36:08.678Z,28.20
2023-04-10T01:38:36.135Z,29.10
2023-04-10T01:41:02.857Z,26.20
2023-04-10T01:43:31.667Z,28.80
2023-04-10T01:45:59.092Z,24.80
2023-04-10T01:48:25.860Z,25.90
2023-04-10T01:50:52.731Z,25.00
2023-04-10T01:53:19.428Z,24.80
2023-04-10T01:55:47.153Z,22.80
2023-04-10T01:58:14.930Z,21.60
2023-04-10T02:00:42.428Z,21.70
2023-04-10T02:03:10.886Z,22.00
2023-04-10T02:06:02.577Z,22.00
2023-04-10T02:09:03.314Z,20.10
2023-04-10T02:12:06.573Z,21.30
2023-04-10T02:14:36.534Z,20.20
2023-04-10T02:17:04.771Z,21.40
2023-04-10T02:19:31.612Z,22.70
2023-04-10T02:22:04.413Z,22.50
2023-04-10T02:24:34.663Z,22.70
2023-04-10T02:27:01.381Z,23.40
2023-04-10T02:29:28.931Z,24.10
2023-04-10T02:31:55.880Z,24.70
2023-04-10T02:34:22.481Z,23.40
2023-04-10T02:36:49.489Z,24.30
2023-04-10T02:39:16.170Z,25.60
2023-04-10T02:41:48.072Z,26.00
2023-04-10T02:44:15.176Z,24.50
2023-04-10T02:46:42.322Z,24.90
2023-04-10T02:49:09.932Z,25.50
2023-04-10T02:51:36.873Z,25.60
2023-04-10T02:54:03.988Z,25.90
2023-04-10T02:56:34.268Z,26.30
2023-04-10T02:59:00.956Z,26.20
2023-04-10T03:01:29.425Z,26.40
2023-04-10T03:03:57.651Z,26.10
2023-04-10T03:06:30.723Z,26.20
2023-04-10T03:08:57.462Z,24.70
2023-04-10T03:11:24.022Z,24.60
2023-04-10T03:13:53.381Z,25.80
2023-04-10T03:16:21.097Z,26.50
2023-04-10T03:18:48.150Z,23.80
2023-04-10T03:21:20.827Z,25.30
2023-04-10T03:23:49.098Z,24.50
2023-04-10T03:26:16.011Z,24.20
2023-04-10T03:28:42.682Z,24.50
2023-04-10T03:31:11.713Z,25.50
2023-04-10T03:33:39.656Z,26.60
2023-04-10T03:36:07.207Z,26.80
2023-04-10T03:38:34.236Z,24.40
2023-04-10T03:41:01.126Z,25.10
2023-04-10T03:43:31.033Z,25.40
2023-04-10T03:45:57.978Z,24.40
2023-04-10T03:48:30.016Z,23.80
2023-04-10T03:50:57.697Z,24.10
2023-04-10T03:53:25.263Z,24.60
2023-04-10T03:55:52.829Z,24.70
2023-04-10T03:58:22.590Z,23.20
2023-04-10T04:00:50.984Z,24.60
2023-04-10T04:03:24.311Z,23.80
2023-04-10T04:05:58.430Z,24.30
2023-04-10T04:08:48.872Z,23.00
2023-04-10T04:11:15.584Z,24.40
2023-04-10T04:14:13.324Z,24.00
2023-04-10T04:16:56.897Z,23.20
2023-04-10T04:19:55.062Z,24.60
2023-04-10T04:22:46.707Z,25.90
2023-04-10T04:25:21.792Z,25.70
2023-04-10T04:28:15.402Z,23.80
2023-04-10T04:31:02.062Z,25.20
2023-04-10T04:33:52.918Z,23.30
2023-04-10T04:36:50.176Z,25.70
2023-04-10T04:39:35.736Z,25.10
2023-04-10T04:42:22.765Z,25.40
2023-04-10T04:45:09.986Z,25.60
2023-04-10T04:48:10.231Z,22.90
2023-04-10T04:50:59.863Z,24.70
2023-04-10T04:53:45.396Z,24.60
2023-04-10T04:56:31.668Z,24.30
2023-04-10T04:59:18.677Z,24.30
2023-04-10T05:02:06.161Z,26.00
2023-04-10T05:04:48.167Z,25.50
2023-04-10T05:07:38.246Z,24.30
2023-04-10T05:10:25.982Z,24.50
2023-04-10T05:13:16.935Z,23.80
2023-04-10T05:15:58.621Z,23.30
2023-04-10T05:18:40.991Z,23.70
2023-04-10T05:21:20.681Z,21.00
2023-04-10T05:24:07.913Z,21.40
2023-04-10T05:26:49.726Z,22.10
2023-04-10T05:29:35.340Z,20.70
2023-04-10T05:32:39.207Z,19.70
2023-04-10T05:35:38.122Z,19.10
2023-04-10T05:38:30.766Z,20.90
2023-04-10T05:41:13.096Z,19.60
2023-04-10T05:43:56.233Z,20.60
2023-04-10T05:46:55.169Z,20.90
2023-04-10T05:49:22.381Z,20.70
2023-04-10T05:52:02.166Z,20.20
2023-04-10T05:54:46.524Z,19.70
2023-04-10T05:57:32.014Z,18.90
2023-04-10T06:00:38.038Z,19.80
2023-04-10T06:03:23.334Z,20.40
2023-04-10T06:05:55.960Z,19.70
2023-04-10T06:08:24.968Z,20.00
2023-04-10T06:10:52.884Z,21.10
2023-04-10T06:13:20.031Z,20.90
2023-04-10T06:15:48.506Z,26.60
2023-04-10T06:18:16.466Z,30.70
2023-04-10T06:20:43.902Z,32.90
2023-04-10T06:23:13.417Z,31.50
2023-04-10T06:25:41.265Z,31.30
2023-04-10T06:28:08.092Z,32.00
2023-04-10T06:30:39.027Z,29.20
2023-04-10T06:33:07.835Z,27.00
2023-04-10T06:35:36.024Z,27.90
2023-04-10T06:38:03.630Z,26.80
2023-04-10T06:40:33.469Z,25.50
2023-04-10T06:43:00.781Z,27.40
2023-04-10T06:45:34.216Z,25.10
2023-04-10T06:48:01.473Z,24.20
2023-04-10T06:50:28.654Z,25.90
2023-04-10T06:52:59.206Z,27.60
2023-04-10T06:55:26.515Z,26.70
2023-04-10T06:58:13.317Z,24.60
2023-04-10T07:00:40.983Z,26.10
2023-04-10T07:03:09.116Z,24.50
2023-04-10T07:05:36.203Z,23.30
2023-04-10T07:08:03.296Z,24.20
2023-04-10T07:10:31.616Z,24.10
2023-04-10T07:13:00.127Z,23.70
2023-04-10T07:15:40.954Z,23.20
2023-04-10T07:18:09.137Z,22.00
2023-04-10T07:20:36.481Z,21.30
2023-04-10T07:23:11.640Z,20.50
2023-04-10T07:25:40.554Z,20.10
2023-04-10T07:28:07.246Z,22.10
2023-04-10T07:30:42.430Z,23.60
2023-04-10T07:33:10.130Z,23.90
2023-04-10T07:35:37.567Z,21.60
2023-04-10T07:38:05.927Z,24.40
2023-04-10T07:40:33.324Z,22.20
2023-04-10T07:43:00.863Z,22.00
2023-04-10T07:45:28.039Z,21.60
2023-04-10T07:47:55.547Z,18.60
2023-04-10T07:50:25.555Z,19.60
2023-04-10T07:52:52.662Z,20.20
2023-04-10T07:55:19.922Z,21.00
2023-04-10T07:57:46.842Z,19.80
2023-04-10T08:00:14.569Z,19.10
2023-04-10T08:02:43.499Z,19.70
2023-04-10T08:05:10.729Z,18.60
2023-04-10T08:07:37.917Z,18.80
2023-04-10T08:10:05.271Z,16.90
2023-04-10T08:12:35.600Z,15.80
2023-04-10T08:15:05.130Z,16.10
2023-04-10T08:17:33.485Z,13.70
2023-04-10T08:20:01.696Z,13.10
2023-04-10T08:22:29.278Z,13.60
2023-04-10T08:25:00.579Z,13.20
2023-04-10T08:27:48.368Z,13.70
2023-04-10T08:30:16.227Z,12.50
2023-04-10T08:32:46.643Z,12.50
2023-04-10T08:35:13.843Z,13.30
2023-04-10T08:37:49.739Z,13.60
2023-04-10T08:40:21.623Z,14.20
2023-04-10T08:45:22.057Z,13.10
2023-04-10T08:47:52.072Z,12.90
2023-04-10T08:50:19.489Z,11.90
2023-04-10T08:52:46.855Z,12.70
2023-04-10T08:55:17.197Z,11.70
2023-04-10T08:57:54.136Z,12.00
2023-04-10T09:00:25.420Z,10.80
2023-04-10T09:02:57.656Z,11.40
2023-04-10T09:05:26.464Z,11.30
2023-04-10T09:08:01.162Z,11.20
2023-04-10T09:10:28.255Z,11.50
2023-04-10T09:12:55.766Z,10.80
2023-04-10T09:15:22.835Z,11.20
2023-04-10T09:18:01.179Z,11.10
2023-04-10T09:20:30.791Z,10.20
2023-04-10T09:22:58.266Z,9.50
2023-04-10T09:25:41.104Z,9.20
2023-04-10T09:28:09.516Z,8.60
2023-04-10T09:30:40.590Z,8.30
2023-04-10T09:33:30.021Z,8.70
2023-04-10T09:35:57.554Z,8.30
2023-04-10T09:38:26.913Z,7.80
2023-04-10T09:40:55.536Z,7.20
2023-04-10T09:43:25.691Z,7.20
2023-04-10T09:45:57.108Z,7.00
2023-04-10T09:48:26.371Z,6.70
2023-04-10T09:50:53.723Z,6.90
2023-04-10T09:53:23.027Z,7.10
2023-04-10T09:55:51.591Z,7.80
2023-04-10T09:58:18.643Z,7.70
2023-04-10T10:00:49.390Z,7.50
2023-04-10T10:03:18.891Z,8.50
2023-04-10T10:05:50.181Z,7.50
2023-04-10T10:08:25.651Z,8.10
2023-04-10T10:10:54.118Z,7.80
2023-04-10T10:13:35.524Z,8.70
2023-04-10T10:16:26.819Z,7.30
2023-04-10T10:19:10.806Z,7.90
2023-04-10T10:21:38.116Z,7.10
2023-04-10T10:24:09.951Z,7.50
2023-04-10T10:26:38.719Z,7.40
2023-04-10T10:29:38.748Z,6.60
2023-04-10T10:32:13.753Z,6.70
2023-04-10T10:34:41.576Z,6.10
2023-04-10T10:37:08.616Z,5.80
2023-04-10T10:39:43.487Z,5.70
2023-04-10T10:42:45.647Z,5.10
2023-04-10T10:45:16.217Z,5.90
2023-04-10T10:47:45.615Z,6.00
2023-04-10T10:50:14.185Z,5.90
2023-04-10T10:53:00.131Z,5.40
2023-04-10T10:55:27.583Z,5.50
2023-04-10T10:57:55.590Z,5.20
2023-04-10T11:00:27.096Z,4.60
2023-04-10T11:05:52.097Z,4.30
2023-04-10T11:08:35.714Z,4.00
2023-04-10T11:11:12.302Z,4.10
2023-04-10T11:13:41.471Z,4.70
2023-04-10T11:16:11.426Z,3.80
2023-04-10T11:18:56.197Z,3.40
2023-04-10T11:21:39.734Z,3.30
2023-04-10T11:24:53.045Z,3.40
2023-04-10T11:28:12.538Z,3.60
2023-04-10T11:31:11.668Z,3.10
2023-04-10T11:33:40.563Z,3.40
2023-04-10T11:36:07.520Z,3.20
2023-04-10T11:38:35.749Z,3.10
2023-04-10T11:41:04.765Z,3.20
2023-04-10T11:43:34.513Z,3.30
2023-04-10T11:46:06.894Z,3.10
2023-04-10T11:48:34.267Z,3.10
2023-04-10T11:51:11.549Z,3.40
2023-04-10T11:53:41.870Z,3.10
2023-04-10T11:56:16.888Z,3.10
2023-04-10T11:58:44.206Z,2.70
2023-04-10T12:01:13.875Z,2.90
2023-04-10T12:03:42.202Z,3.30
2023-04-10T12:10:47.244Z,3.30
2023-04-10T12:13:32.470Z,4.10
2023-04-10T12:16:03.622Z,3.70
2023-04-10T12:18:30.998Z,3.50
2023-04-10T12:20:58.931Z,4.00
2023-04-10T12:23:29.308Z,4.00
2023-04-10T12:26:27.089Z,3.90
2023-04-10T12:28:55.307Z,4.10
2023-04-10T12:31:33.337Z,3.80
2023-04-10T12:43:00.573Z,4.00
2023-04-10T12:45:42.221Z,4.10
2023-04-10T12:48:09.179Z,4.00
2023-04-10T12:50:47.095Z,3.90
2023-04-10T12:53:15.114Z,3.80
2023-04-10T12:55:42.499Z,3.70
2023-04-10T12:58:19.494Z,3.70
2023-04-10T13:00:46.979Z,4.10
2023-04-10T13:03:14.155Z,4.10
2023-04-10T13:10:31.833Z,4.10
2023-04-10T13:13:01.842Z,3.90
2023-04-10T13:15:29.441Z,3.20
2023-04-10T13:17:56.689Z,3.40
2023-04-10T13:20:24.560Z,3.40
2023-04-10T13:22:51.647Z,3.60
2023-04-10T13:25:18.377Z,3.50
2023-04-10T13:27:46.203Z,3.30
2023-04-10T13:30:12.874Z,3.00
2023-04-10T13:32:39.836Z,3.20
2023-04-10T13:35:08.475Z,2.90
2023-04-10T13:37:36.062Z,3.00
2023-04-10T13:40:04.488Z,2.90
2023-04-10T13:42:31.958Z,2.90
2023-04-10T13:44:58.596Z,3.20
2023-04-10T13:47:25.609Z,3.20
2023-04-10T13:49:52.763Z,3.00
2023-04-10T13:52:21.011Z,3.20
2023-04-10T13:54:48.035Z,3.50
2023-04-10T13:57:14.718Z,3.80
2023-04-10T13:59:44.164Z,3.20
2023-04-10T14:02:11.756Z,3.90
2023-04-10T14:04:38.779Z,4.60
2023-04-10T14:07:05.387Z,5.30
2023-04-10T14:09:32.879Z,5.30
2023-04-10T14:12:00.942Z,5.90
2023-04-10T14:14:28.841Z,5.80
2023-04-10T14:16:56.735Z,6.30
2023-04-10T14:19:23.560Z,6.40
2023-04-10T14:21:50.475Z,6.50
2023-04-10T14:24:17.508Z,6.50
2023-04-10T14:26:44.817Z,6.10
2023-04-10T14:29:13.483Z,5.80
2023-04-10T14:31:56.579Z,5.60
2023-04-10T14:34:24.549Z,5.00
2023-04-10T14:36:55.114Z,4.90
2023-04-10T14:39:23.877Z,4.70
2023-04-10T14:41:50.972Z,5.30
2023-04-10T14:44:17.671Z,4.80
2023-04-10T14:46:45.255Z,5.20
2023-04-10T14:49:13.279Z,5.70
2023-04-10T14:51:44.932Z,6.50
2023-04-10T14:54:11.616Z,6.60
2023-04-10T14:56:38.328Z,6.80
2023-04-10T14:59:06.313Z,6.60
2023-04-10T15:01:33.552Z,6.80
2023-04-10T15:04:00.682Z,6.60
2023-04-10T15:06:28.923Z,7.20
2023-04-10T15:08:56.261Z,7.60
2023-04-10T15:11:23.159Z,7.10
2023-04-10T15:13:52.582Z,7.60
2023-04-10T15:16:21.238Z,7.00
2023-04-10T15:18:49.368Z,7.90
2023-04-10T15:21:16.514Z,7.40
2023-04-10T15:23:43.260Z,7.40
2023-04-10T15:26:16.553Z,7.70
2023-04-10T15:28:43.737Z,7.20
2023-04-10T15:31:10.541Z,7.20
2023-04-10T15:33:51.114Z,6.90
2023-04-10T15:36:17.911Z,7.10
2023-04-10T15:38:45.061Z,6.70
2023-04-10T15:41:12.409Z,6.90
2023-04-10T15:43:39.234Z,6.50
2023-04-10T15:50:39.910Z,6.50
2023-04-10T15:53:06.656Z,7.40
2023-04-10T15:55:33.453Z,7.10
2023-04-10T15:58:05.516Z,7.10
2023-04-10T16:00:32.749Z,7.00
2023-04-10T16:02:59.665Z,7.60
2023-04-10T16:05:26.632Z,8.30
2023-04-10T16:07:53.664Z,8.00
2023-04-10T16:10:20.731Z,8.00
2023-04-10T16:12:47.866Z,7.70
2023-04-10T16:15:16.212Z,7.40
2023-04-10T16:17:43.463Z,7.10
2023-04-10T16:20:13.742Z,7.60
2023-04-10T16:22:40.872Z,7.50
2023-04-10T16:25:08.383Z,7.50
2023-04-10T16:27:36.551Z,8.10
2023-04-10T16:30:06.011Z,8.80
2023-04-10T16:32:35.549Z,9.20
2023-04-10T16:35:05.888Z,8.00
2023-04-10T16:37:32.878Z,9.20
2023-04-10T16:40:05.048Z,9.90
2023-04-10T16:42:32.544Z,8.60
2023-04-10T16:45:01.451Z,9.50
2023-04-10T16:47:29.844Z,9.80
2023-04-10T16:49:56.750Z,9.80
2023-04-10T16:52:32.870Z,10.70
2023-04-10T16:54:59.639Z,12.20
2023-04-10T16:57:26.831Z,11.50
2023-04-10T17:00:00.899Z,11.90
2023-04-10T17:02:31.880Z,11.20
2023-04-10T17:05:00.071Z,11.40
2023-04-10T17:07:31.616Z,12.50
2023-04-10T17:10:01.588Z,11.30
2023-04-10T17:12:31.130Z,10.50
2023-04-10T17:15:04.163Z,11.90
2023-04-10T17:17:34.884Z,11.00
2023-04-10T17:20:03.071Z,11.20
2023-04-10T17:22:33.573Z,10.40
2023-04-10T17:25:03.906Z,10.80
2023-04-10T17:27:33.449Z,11.10
2023-04-10T17:30:12.681Z,10.10
2023-04-10T17:32:45.422Z,10.10
2023-04-10T17:35:15.649Z,10.70
2023-04-10T17:37:46.569Z,10.80
2023-04-10T17:40:16.707Z,10.80
2023-04-10T17:42:45.646Z,10.70
2023-04-10T17:45:16.361Z,10.70
2023-04-10T17:47:46.679Z,10.80
2023-04-10T17:50:15.347Z,11.20
2023-04-10T17:52:45.391Z,11.80
2023-04-10T17:55:20.847Z,11.50
2023-04-10T17:57:55.616Z,11.90
2023-04-10T18:00:26.651Z,10.70
2023-04-10T18:03:00.290Z,12.10
2023-04-10T18:13:27.639Z,11.00
2023-04-10T18:15:56.446Z,10.00
2023-04-10T18:18:23.697Z,10.20
2023-04-10T18:20:51.103Z,10.70
2023-04-10T18:23:24.464Z,10.60
2023-04-10T18:25:54.334Z,11.20
2023-04-10T18:28:21.848Z,10.80
2023-04-10T18:30:50.317Z,10.50
2023-04-10T18:33:21.894Z,10.40
2023-04-10T18:35:53.445Z,11.00
2023-04-10T18:38:20.792Z,11.00
2023-04-10T18:40:56.400Z,11.00
2023-04-10T18:43:29.344Z,10.20
2023-04-10T18:46:02.075Z,11.10
2023-04-10T18:48:29.056Z,11.50
2023-04-10T18:50:55.719Z,11.20
2023-04-10T18:53:22.388Z,11.30
2023-04-10T18:55:52.811Z,10.90
2023-04-10T18:58:20.263Z,10.80
2023-04-10T19:00:48.437Z,10.60
2023-04-10T19:03:16.561Z,11.20
2023-04-10T19:05:46.078Z,10.40
2023-04-10T19:08:15.193Z,11.80
2023-04-10T19:10:42.211Z,11.80
2023-04-10T19:13:11.389Z,11.40
2023-04-10T19:15:42.695Z,11.40
2023-04-10T19:18:10.174Z,11.60
2023-04-10T19:20:50.461Z,11.10
2023-04-10T19:23:21.871Z,11.60
2023-04-10T19:25:53.160Z,11.80
2023-04-10T19:28:19.902Z,12.30
2023-04-10T19:31:07.478Z,11.30
2023-04-10T19:33:35.056Z,12.80
2023-04-10T19:36:02.056Z,12.80
2023-04-10T19:38:30.072Z,13.20
2023-04-10T19:40:57.904Z,11.90
2023-04-10T19:43:24.971Z,12.60
2023-04-10T19:45:52.782Z,14.50
2023-04-10T19:48:20.534Z,14.60
2023-04-10T19:50:47.158Z,13.40
2023-04-10T19:53:23.031Z,13.10
2023-04-10T19:55:50.288Z,13.40
2023-04-10T19:58:30.459Z,13.60
2023-04-10T20:01:04.752Z,12.80
2023-04-10T20:03:32.900Z,11.20
2023-04-10T20:06:01.718Z,11.50
2023-04-10T20:08:29.694Z,11.20
2023-04-10T20:10:58.148Z,11.60
2023-04-10T20:13:25.311Z,11.50
2023-04-10T20:15:53.746Z,10.60
2023-04-10T20:18:20.769Z,11.20
2023-04-10T20:20:47.512Z,12.00
2023-04-10T20:23:14.383Z,11.40
2023-04-10T20:25:41.017Z,11.00
2023-04-10T20:28:08.296Z,11.50
2023-04-10T20:30:43.559Z,11.40
2023-04-10T20:33:10.525Z,11.40
2023-04-10T20:35:37.414Z,11.40
2023-04-10T20:38:04.300Z,11.00
2023-04-10T20:40:31.635Z,10.80
2023-04-10T20:43:02.415Z,11.30
2023-04-10T20:45:30.267Z,10.90
2023-04-10T20:47:57.016Z,10.90
2023-04-10T20:50:23.841Z,10.90
2023-04-10T20:52:50.560Z,10.00
2023-04-10T20:55:17.240Z,10.30
2023-04-10T20:57:44.224Z,10.10
2023-04-10T21:00:11.613Z,10.70
2023-04-10T21:02:39.426Z,11.20
2023-04-10T21:05:06.769Z,10.60
2023-04-10T21:07:35.711Z,11.10
2023-04-10T21:10:04.287Z,10.10
2023-04-10T21:12:31.430Z,10.70
2023-04-10T21:15:01.007Z,10.50
2023-04-10T21:17:30.635Z,10.40
2023-04-10T21:19:58.263Z,10.80
2023-04-10T21:22:28.071Z,9.80
2023-04-10T21:24:55.930Z,9.30
2023-04-10T21:27:27.774Z,10.30
2023-04-10T21:29:54.436Z,10.80
2023-04-10T21:32:21.157Z,9.90
2023-04-10T21:34:47.900Z,10.50
2023-04-10T21:37:14.557Z,10.10
2023-04-10T21:39:41.451Z,10.20
2023-04-10T21:42:08.176Z,11.00
2023-04-10T21:44:35.103Z,11.00
2023-04-10T21:47:01.763Z,11.00
2023-04-10T21:49:29.030Z,10.90
2023-04-10T21:52:03.824Z,11.90
2023-04-10T21:54:30.604Z,11.00
2023-04-10T21:56:58.053Z,10.90
2023-04-10T21:59:26.245Z,10.90
2023-04-10T22:01:53.867Z,11.10
2023-04-10T22:04:20.700Z,11.00
2023-04-10T22:06:47.427Z,10.70
2023-04-10T22:09:14.262Z,10.60
2023-04-10T22:11:40.904Z,10.60
2023-04-10T22:14:17.176Z,10.40
2023-04-10T22:16:45.717Z,10.70
2023-04-10T22:19:12.432Z,10.50
2023-04-10T22:21:39.106Z,10.60
2023-04-10T22:24:06.056Z,10.40
2023-04-10T22:26:33.839Z,10.20
2023-04-10T22:29:02.983Z,10.00
2023-04-10T22:31:29.861Z,10.80
2023-04-10T22:33:56.789Z,10.80
2023-04-10T22:36:24.385Z,11.10
2023-04-10T22:38:51.141Z,12.60
2023-04-10T22:41:17.811Z,11.80
2023-04-10T22:43:44.498Z,11.50
2023-04-10T22:46:13.216Z,12.40
2023-04-10T22:48:40.862Z,12.10
2023-04-10T22:51:11.397Z,12.20
2023-04-10T22:53:40.359Z,12.80
2023-04-10T22:56:08.496Z,12.20
2023-04-10T22:58:38.555Z,13.20
2023-04-10T23:01:06.446Z,11.60
2023-04-10T23:03:33.337Z,11.80
2023-04-10T23:06:00.273Z,11.40
2023-04-10T23:08:27.097Z,11.70
2023-04-10T23:10:54.572Z,11.40
2023-04-10T23:13:23.977Z,11.70
2023-04-10T23:15:52.415Z,11.40
2023-04-10T23:18:19.160Z,10.00
2023-04-10T23:20:50.502Z,11.90
2023-04-10T23:23:17.890Z,10.60
2023-04-10T23:25:44.823Z,11.60
2023-04-10T23:28:13.286Z,11.30
2023-04-10T23:30:42.204Z,11.10
2023-04-10T23:33:09.170Z,11.10
2023-04-10T23:35:36.670Z,11.10
2023-04-10T23:38:03.866Z,10.10
2023-04-10T23:40:30.722Z,10.60
2023-04-10T23:42:57.864Z,11.10
2023-04-10T23:45:24.645Z,10.80
2023-04-10T23:47:54.535Z,10.90
2023-04-10T23:50:22.084Z,11.20
2023-04-10T23:52:51.979Z,10.10
2023-04-10T23:55:21.061Z,11.20
2023-04-10T23:57:47.901Z,11.30
